Time;durP1;ratioP1;P1;durP2;ratioP2;P2;SDS_P1;SDS_P2;PMS_P1;PMS_P2;Temp;Humidity;BMP_temperature;BMP_pressure;BME280_temperature;BME280_humidity;BME280_pressure;Samples;Min_cycle;Max_cycle;Signal;HPM_P1;HPM_P2
2024/04/11 00:01:10;;;;;;;12.90;4.07;;;;;;;;;;7342306;19;20309;-50
2024/04/11 00:03:36;;;;;;;9.38;4.30;;;;;;;;;;7341455;19;20293;-47
2024/04/11 00:06:01;;;;;;;10.40;4.70;;;;;;;;;;7319583;19;20319;-47
2024/04/11 00:08:27;;;;;;;11.57;4.90;;;;;;;;;;7341339;19;20309;-46
2024/04/11 00:10:52;;;;;;;10.83;4.60;;;;;;;;;;7320463;19;20317;-46
2024/04/11 00:13:18;;;;;;;12.32;5.00;;;;;;;;;;7343489;19;20702;-46
2024/04/11 00:15:44;;;;;;;12.80;5.27;;;;;;;;;;7321086;19;20875;-46
2024/04/11 00:18:09;;;;;;;10.40;4.70;;;;;;;;;;7342142;19;20429;-47
2024/04/11 00:20:35;;;;;;;10.03;4.60;;;;;;;;;;7343391;19;20304;-49
2024/04/11 00:23:00;;;;;;;9.02;4.47;;;;;;;;;;7321133;19;20380;-46
2024/04/11 00:25:26;;;;;;;10.27;4.95;;;;;;;;;;7343019;19;20333;-49
2024/04/11 00:27:51;;;;;;;14.53;5.07;;;;;;;;;;7319951;19;20344;-49
2024/04/11 00:30:17;;;;;;;10.85;4.70;;;;;;;;;;7342964;19;20848;-46
2024/04/11 00:32:42;;;;;;;12.23;4.80;;;;;;;;;;7318594;19;20332;-48
2024/04/11 00:35:09;;;;;;;10.90;5.10;;;;;;;;;;7341817;19;20289;-46
2024/04/11 00:37:36;;;;;;;10.23;4.80;;;;;;;;;;7341689;19;20301;-46
2024/04/11 00:40:02;;;;;;;10.05;4.40;;;;;;;;;;7319546;19;20301;-47
2024/04/11 00:42:28;;;;;;;11.65;4.60;;;;;;;;;;7343975;19;20380;-50
2024/04/11 00:44:53;;;;;;;8.95;4.47;;;;;;;;;;7320051;19;20309;-46
2024/04/11 00:47:20;;;;;;;10.68;4.20;;;;;;;;;;7341871;19;20392;-47
2024/04/11 00:49:46;;;;;;;8.75;4.40;;;;;;;;;;7319149;19;20297;-46
2024/04/11 00:52:13;;;;;;;8.23;4.15;;;;;;;;;;7341091;19;20293;-49
2024/04/11 00:54:39;;;;;;;11.38;4.50;;;;;;;;;;7337253;19;20680;-46
2024/04/11 00:57:07;;;;;;;11.55;4.90;;;;;;;;;;7330821;19;20309;-46
2024/04/11 00:59:34;;;;;;;11.20;4.70;;;;;;;;;;7339838;19;20301;-49
2024/04/11 01:01:59;;;;;;;12.60;4.75;;;;;;;;;;7320204;19;21177;-48
2024/04/11 01:04:25;;;;;;;10.38;4.30;;;;;;;;;;7340648;19;20320;-51
2024/04/11 01:07:09;;;;;;;11.63;4.90;;;;;;;;;;7319718;19;20300;-49
2024/04/11 01:09:35;;;;;;;11.25;4.75;;;;;;;;;;7339586;19;20317;-46
2024/04/11 01:12:01;;;;;;;12.50;4.80;;;;;;;;;;7318720;19;20305;-49
2024/04/11 01:14:27;;;;;;;9.70;4.90;;;;;;;;;;7347045;19;20345;-46
2024/04/11 01:16:52;;;;;;;13.90;5.40;;;;;;;;;;7328492;19;20688;-46
2024/04/11 01:19:27;;;;;;;16.77;6.72;;;;;;;;;;7346703;19;20899;-48
2024/04/11 01:21:53;;;;;;;30.08;13.40;;;;;;;;;;7321299;19;20333;-46
2024/04/11 01:24:18;;;;;;;14.27;5.38;;;;;;;;;;7348991;19;20301;-46
2024/04/11 01:26:43;;;;;;;11.70;5.10;;;;;;;;;;7327162;19;20350;-46
2024/04/11 01:29:10;;;;;;;11.98;5.00;;;;;;;;;;7345894;19;20380;-51
2024/04/11 01:31:36;;;;;;;12.30;6.30;;;;;;;;;;7346879;19;20348;-47
2024/04/11 01:34:01;;;;;;;12.77;4.90;;;;;;;;;;7326607;19;20301;-46
2024/04/11 01:36:27;;;;;;;10.97;4.80;;;;;;;;;;7348039;19;20380;-48
2024/04/11 01:38:53;;;;;;;10.57;4.90;;;;;;;;;;7323692;19;20424;-46
2024/04/11 01:41:18;;;;;;;11.48;5.40;;;;;;;;;;7347950;19;20321;-46
2024/04/11 01:43:44;;;;;;;13.53;5.50;;;;;;;;;;7324892;19;20308;-51
2024/04/11 01:46:09;;;;;;;10.50;4.95;;;;;;;;;;7347626;19;20883;-46
2024/04/11 01:48:35;;;;;;;10.10;4.73;;;;;;;;;;7345743;19;20316;-46
2024/04/11 01:51:00;;;;;;;12.47;4.70;;;;;;;;;;7325701;19;20766;-45
2024/04/11 01:53:26;;;;;;;14.02;5.10;;;;;;;;;;7348137;19;20348;-51
2024/04/11 01:55:51;;;;;;;9.57;4.47;;;;;;;;;;7324585;19;20787;-49
2024/04/11 01:58:17;;;;;;;13.73;4.70;;;;;;;;;;7346062;19;20308;-45
2024/04/11 02:00:47;;;;;;;11.57;4.45;;;;;;;;;;7324909;19;20289;-49
2024/04/11 02:03:13;;;;;;;12.00;4.43;;;;;;;;;;7345171;19;20358;-49
2024/04/11 02:05:40;;;;;;;7.95;3.80;;;;;;;;;;7341338;19;20662;-48
2024/04/11 02:08:06;;;;;;;12.23;4.03;;;;;;;;;;7345701;19;20331;-51
2024/04/11 02:10:32;;;;;;;13.80;4.07;;;;;;;;;;7346852;19;20332;-47
2024/04/11 02:12:58;;;;;;;8.43;3.70;;;;;;;;;;7323783;19;20375;-46
2024/04/11 02:15:24;;;;;;;11.25;4.20;;;;;;;;;;7346760;19;20326;-51
2024/04/11 02:17:49;;;;;;;9.25;3.17;;;;;;;;;;7323790;19;20293;-46
2024/04/11 02:20:16;;;;;;;9.80;3.80;;;;;;;;;;7346122;19;20317;-49
2024/04/11 02:22:43;;;;;;;9.35;3.55;;;;;;;;;;7324020;19;20997;-46
2024/04/11 02:25:09;;;;;;;10.25;3.00;;;;;;;;;;7345380;19;20887;-46
2024/04/11 02:27:34;;;;;;;10.50;3.58;;;;;;;;;;7345642;19;20304;-48
2024/04/11 02:30:00;;;;;;;9.20;3.60;;;;;;;;;;7323696;19;22792;-53
2024/04/11 02:32:27;;;;;;;10.00;3.60;;;;;;;;;;7344745;19;20307;-51
2024/04/11 02:34:52;;;;;;;11.63;3.92;;;;;;;;;;7323237;19;20316;-46
2024/04/11 02:37:18;;;;;;;8.45;3.40;;;;;;;;;;7345544;19;20300;-49
2024/04/11 02:39:44;;;;;;;9.43;3.70;;;;;;;;;;7322399;19;20374;-48
2024/04/11 02:42:09;;;;;;;7.17;3.60;;;;;;;;;;7345731;19;20861;-51
2024/04/11 02:44:35;;;;;;;9.57;2.90;;;;;;;;;;7345757;19;20325;-49
2024/04/11 02:47:01;;;;;;;10.18;3.53;;;;;;;;;;7324147;19;20308;-52
2024/04/11 02:49:29;;;;;;;7.82;3.25;;;;;;;;;;7344184;19;20304;-48
2024/04/11 02:51:54;;;;;;;9.70;3.42;;;;;;;;;;7322353;19;20328;-49
2024/04/11 02:54:20;;;;;;;10.88;3.25;;;;;;;;;;7345551;19;20406;-47
2024/04/11 02:56:45;;;;;;;8.57;3.10;;;;;;;;;;7323289;19;20850;-46
2024/04/11 02:59:11;;;;;;;8.67;3.00;;;;;;;;;;7343842;19;20293;-47
2024/04/11 03:01:37;;;;;;;6.85;2.45;;;;;;;;;;7345911;19;20852;-49
2024/04/11 03:04:02;;;;;;;8.68;3.20;;;;;;;;;;7323533;19;20301;-47
2024/04/11 03:06:28;;;;;;;10.70;3.40;;;;;;;;;;7347324;19;20364;-50
2024/04/11 03:08:56;;;;;;;8.23;2.93;;;;;;;;;;7322036;19;20312;-46
2024/04/11 03:11:23;;;;;;;11.40;3.20;;;;;;;;;;7343974;19;20324;-48
2024/04/11 03:13:50;;;;;;;8.90;2.80;;;;;;;;;;7323242;19;20331;-48
2024/04/11 03:16:15;;;;;;;9.57;3.20;;;;;;;;;;7346298;19;20883;-50
2024/04/11 03:18:41;;;;;;;8.23;2.90;;;;;;;;;;7320744;19;20321;-50
2024/04/11 03:21:06;;;;;;;11.80;3.53;;;;;;;;;;7344009;19;20300;-48
2024/04/11 03:23:32;;;;;;;6.90;2.20;;;;;;;;;;7345148;19;20301;-47
2024/04/11 03:25:58;;;;;;;7.13;2.50;;;;;;;;;;7322462;19;20701;-52
2024/04/11 03:28:24;;;;;;;11.47;2.80;;;;;;;;;;7343573;19;20324;-46
2024/04/11 03:30:53;;;;;;;9.90;3.80;;;;;;;;;;7322332;19;20305;-47
2024/04/11 03:33:18;;;;;;;10.17;3.33;;;;;;;;;;7344160;19;20369;-46
2024/04/11 03:35:52;;;;;;;8.50;2.70;;;;;;;;;;7320585;19;20312;-49
2024/04/11 03:38:17;;;;;;;10.33;2.83;;;;;;;;;;7340011;19;20368;-48
2024/04/11 03:40:53;;;;;;;8.10;2.77;;;;;;;;;;7321848;19;20305;-46
2024/04/11 03:43:19;;;;;;;7.77;2.70;;;;;;;;;;7344637;19;20332;-51
2024/04/11 03:45:44;;;;;;;7.97;2.70;;;;;;;;;;7321852;19;20303;-46
2024/04/11 03:48:10;;;;;;;6.72;2.60;;;;;;;;;;7343083;19;20354;-47
2024/04/11 03:50:35;;;;;;;8.70;2.80;;;;;;;;;;7344169;19;20729;-48
2024/04/11 03:53:01;;;;;;;8.02;2.50;;;;;;;;;;7322157;19;20312;-47
2024/04/11 03:55:26;;;;;;;8.23;2.70;;;;;;;;;;7344052;19;20673;-46
2024/04/11 03:57:52;;;;;;;8.00;2.50;;;;;;;;;;7320871;19;20335;-48
2024/04/11 04:00:17;;;;;;;6.55;2.53;;;;;;;;;;7344450;19;20296;-48
2024/04/11 04:02:42;;;;;;;7.10;2.40;;;;;;;;;;7318324;19;20328;-47
2024/04/11 04:05:12;;;;;;;8.20;2.85;;;;;;;;;;7342778;19;20293;-48
2024/04/11 04:07:38;;;;;;;9.57;2.30;;;;;;;;;;7343380;19;20293;-49
2024/04/11 04:10:04;;;;;;;9.30;2.63;;;;;;;;;;7320758;19;20297;-51
2024/04/11 04:12:29;;;;;;;10.27;2.53;;;;;;;;;;7342782;19;20368;-49
2024/04/11 04:14:55;;;;;;;8.55;2.60;;;;;;;;;;7321206;19;20308;-48
2024/04/11 04:17:23;;;;;;;5.80;2.30;;;;;;;;;;7343036;19;20313;-50
2024/04/11 04:19:49;;;;;;;7.35;2.53;;;;;;;;;;7320231;19;20300;-46
2024/04/11 04:22:16;;;;;;;7.40;2.33;;;;;;;;;;7342904;19;20334;-52
2024/04/11 04:24:41;;;;;;;8.88;3.00;;;;;;;;;;7318065;19;20293;-49
2024/04/11 04:27:07;;;;;;;6.60;2.13;;;;;;;;;;7342495;19;20368;-46
2024/04/11 04:29:33;;;;;;;10.10;2.70;;;;;;;;;;7341568;19;20916;-46
2024/04/11 04:31:58;;;;;;;8.57;2.20;;;;;;;;;;7320340;19;20325;-45
2024/04/11 04:34:25;;;;;;;7.40;2.53;;;;;;;;;;7342702;19;20301;-51
2024/04/11 04:36:51;;;;;;;6.80;2.30;;;;;;;;;;7320251;19;20308;-46
2024/04/11 04:39:16;;;;;;;7.50;2.30;;;;;;;;;;7340546;19;20297;-50
2024/04/11 04:41:42;;;;;;;8.30;2.50;;;;;;;;;;7319782;19;20327;-50
2024/04/11 04:44:08;;;;;;;11.57;2.20;;;;;;;;;;7342038;19;21168;-46
2024/04/11 04:46:33;;;;;;;8.60;2.23;;;;;;;;;;7342577;19;20316;-49
2024/04/11 04:49:00;;;;;;;7.93;1.90;;;;;;;;;;7325860;19;20378;-50
2024/04/11 04:51:31;;;;;;;7.10;2.30;;;;;;;;;;7348525;19;20338;-49
2024/04/11 04:53:59;;;;;;;11.80;2.80;;;;;;;;;;7327359;19;20300;-46
2024/04/11 04:56:30;;;;;;;8.77;2.22;;;;;;;;;;7348849;19;20300;-53
2024/04/11 04:58:58;;;;;;;7.32;2.10;;;;;;;;;;7326697;19;20323;-49
2024/04/11 05:01:26;;;;;;;6.70;2.17;;;;;;;;;;7349404;19;20304;-49
2024/04/11 05:03:52;;;;;;;7.45;2.40;;;;;;;;;;7326102;19;20296;-46
2024/04/11 05:06:18;;;;;;;9.52;2.30;;;;;;;;;;7348830;19;20297;-46
2024/04/11 05:08:47;;;;;;;9.80;2.70;;;;;;;;;;7324435;19;20341;-52
2024/04/11 05:11:13;;;;;;;9.07;2.30;;;;;;;;;;7348529;19;20300;-46
2024/04/11 05:13:39;;;;;;;7.50;2.28;;;;;;;;;;7349778;19;20342;-44
2024/04/11 05:16:06;;;;;;;9.43;2.20;;;;;;;;;;7336128;19;20297;-46
2024/04/11 05:18:32;;;;;;;10.13;2.17;;;;;;;;;;7348108;19;20343;-45
2024/04/11 05:20:58;;;;;;;7.97;2.08;;;;;;;;;;7326659;19;20840;-46
2024/04/11 05:23:32;;;;;;;13.60;2.80;;;;;;;;;;7348003;19;20371;-48
2024/04/11 05:26:07;;;;;;;8.93;2.00;;;;;;;;;;7326280;19;20305;-46
2024/04/11 05:28:35;;;;;;;7.30;2.13;;;;;;;;;;7347133;19;20340;-46
2024/04/11 05:31:04;;;;;;;9.13;2.20;;;;;;;;;;7326246;19;20301;-48
2024/04/11 05:33:32;;;;;;;10.05;2.53;;;;;;;;;;7348199;19;20304;-50
2024/04/11 05:35:58;;;;;;;8.98;2.38;;;;;;;;;;7326516;19;20962;-46
2024/04/11 05:38:25;;;;;;;9.90;2.20;;;;;;;;;;7348313;19;20341;-46
2024/04/11 05:40:50;;;;;;;7.03;2.28;;;;;;;;;;7325799;19;20681;-47
2024/04/11 05:43:17;;;;;;;7.68;2.17;;;;;;;;;;7348023;19;20301;-45
2024/04/11 05:45:42;;;;;;;6.13;2.20;;;;;;;;;;7325167;19;20293;-47
2024/04/11 05:48:08;;;;;;;8.73;2.10;;;;;;;;;;7348352;19;20400;-46
2024/04/11 05:50:34;;;;;;;7.90;2.40;;;;;;;;;;7347321;19;20301;-48
2024/04/11 05:53:00;;;;;;;10.50;2.40;;;;;;;;;;7325010;19;20282;-49
2024/04/11 05:55:25;;;;;;;14.33;2.90;;;;;;;;;;7346543;19;20385;-56
2024/04/11 05:57:53;;;;;;;8.15;2.38;;;;;;;;;;7324709;19;20373;-49
2024/04/11 06:00:22;;;;;;;9.95;2.92;;;;;;;;;;7348187;19;20325;-49
2024/04/11 06:02:47;;;;;;;6.70;2.75;;;;;;;;;;7323374;19;20300;-49
2024/04/11 06:05:12;;;;;;;6.43;2.60;;;;;;;;;;7347860;19;20750;-48
2024/04/11 06:07:39;;;;;;;9.18;2.65;;;;;;;;;;7345005;19;20444;-51
2024/04/11 06:10:11;;;;;;;10.43;2.90;;;;;;;;;;7324707;19;20300;-52
2024/04/11 06:12:37;;;;;;;12.68;3.05;;;;;;;;;;7346304;19;20316;-51
2024/04/11 06:15:03;;;;;;;8.80;2.67;;;;;;;;;;7325630;19;20361;-46
2024/04/11 06:17:28;;;;;;;43.55;15.02;;;;;;;;;;7346589;19;20296;-49
2024/04/11 06:19:55;;;;;;;17.00;6.40;;;;;;;;;;7323048;19;20305;-49
2024/04/11 06:22:21;;;;;;;26.08;10.80;;;;;;;;;;7346232;19;20639;-47
2024/04/11 06:24:47;;;;;;;29.35;12.05;;;;;;;;;;7323967;19;20297;-48
2024/04/11 06:27:12;;;;;;;39.63;12.57;;;;;;;;;;7346762;19;20665;-46
2024/04/11 06:29:38;;;;;;;31.93;12.00;;;;;;;;;;7344769;19;20392;-50
2024/04/11 06:32:12;;;;;;;26.50;9.30;;;;;;;;;;7324775;19;20316;-49
2024/04/11 06:34:41;;;;;;;21.80;8.15;;;;;;;;;;7347842;19;20431;-48
2024/04/11 06:37:10;;;;;;;31.02;11.15;;;;;;;;;;7325124;19;20638;-46
2024/04/11 06:39:35;;;;;;;26.92;9.82;;;;;;;;;;7345155;19;20297;-46
2024/04/11 06:42:02;;;;;;;13.70;4.93;;;;;;;;;;7323495;19;20858;-46
2024/04/11 06:44:27;;;;;;;11.15;3.65;;;;;;;;;;7345210;19;20352;-49
2024/04/11 06:46:53;;;;;;;8.73;3.17;;;;;;;;;;7323486;19;20376;-47
2024/04/11 06:49:18;;;;;;;14.30;4.28;;;;;;;;;;7344971;19;20305;-47
2024/04/11 06:51:44;;;;;;;15.57;4.70;;;;;;;;;;7322798;19;20331;-46
2024/04/11 06:54:10;;;;;;;19.47;8.00;;;;;;;;;;7345009;19;20388;-53
2024/04/11 06:56:36;;;;;;;12.33;3.77;;;;;;;;;;7345218;19;20305;-46
2024/04/11 06:59:05;;;;;;;11.35;4.55;;;;;;;;;;7322270;19;20296;-45
2024/04/11 07:01:31;;;;;;;30.17;11.07;;;;;;;;;;7345462;19;20705;-49
2024/04/11 07:03:59;;;;;;;20.63;7.20;;;;;;;;;;7322412;19;20388;-47
2024/04/11 07:06:25;;;;;;;18.33;7.80;;;;;;;;;;7345237;19;20305;-46
2024/04/11 07:08:54;;;;;;;18.80;6.63;;;;;;;;;;7320954;19;20779;-46
2024/04/11 07:11:23;;;;;;;18.63;5.60;;;;;;;;;;7342333;19;20657;-48
2024/04/11 07:13:49;;;;;;;18.30;6.93;;;;;;;;;;7322291;19;20296;-49
2024/04/11 07:16:20;;;;;;;11.00;4.23;;;;;;;;;;7344882;19;20325;-47
2024/04/11 07:18:48;;;;;;;22.83;9.23;;;;;;;;;;7320790;19;20321;-49
2024/04/11 07:21:17;;;;;;;30.00;10.85;;;;;;;;;;7345319;19;20296;-45
2024/04/11 07:23:43;;;;;;;29.52;10.18;;;;;;;;;;7320503;19;20296;-49
2024/04/11 07:26:11;;;;;;;19.40;8.50;;;;;;;;;;7346779;19;20425;-47
2024/04/11 07:28:45;;;;;;;20.33;8.40;;;;;;;;;;7344794;19;20336;-48
2024/04/11 07:31:14;;;;;;;23.60;9.40;;;;;;;;;;7324445;19;20289;-50
2024/04/11 07:33:40;;;;;;;18.30;8.43;;;;;;;;;;7338762;19;20292;-45
2024/04/11 07:36:07;;;;;;;16.02;6.97;;;;;;;;;;7339376;19;20694;-47
2024/04/11 07:38:35;;;;;;;19.67;6.80;;;;;;;;;;7344491;19;20682;-47
2024/04/11 07:41:16;;;;;;;15.02;6.03;;;;;;;;;;7322904;19;20286;-45
2024/04/11 07:43:51;;;;;;;10.10;5.20;;;;;;;;;;7322271;19;20305;-46
2024/04/11 07:46:17;;;;;;;13.18;6.60;;;;;;;;;;7344759;19;20292;-46
2024/04/11 07:48:47;;;;;;;23.42;9.52;;;;;;;;;;7320871;19;20337;-46
2024/04/11 07:51:13;;;;;;;21.67;9.07;;;;;;;;;;7342541;19;20289;-47
2024/04/11 07:53:41;;;;;;;10.90;4.50;;;;;;;;;;7343192;19;20357;-48
2024/04/11 07:56:06;;;;;;;14.02;5.68;;;;;;;;;;7323966;19;20289;-47
2024/04/11 07:58:33;;;;;;;15.65;6.20;;;;;;;;;;7342581;19;20336;-46
2024/04/11 08:00:58;;;;;;;13.07;5.00;;;;;;;;;;7321930;19;20301;-48
2024/04/11 08:03:24;;;;;;;31.20;12.00;;;;;;;;;;7342819;19;20447;-48
2024/04/11 08:05:50;;;;;;;25.77;10.15;;;;;;;;;;7323232;19;20308;-47
2024/04/11 08:08:19;;;;;;;12.40;4.60;;;;;;;;;;7342128;19;20409;-46
2024/04/11 08:10:48;;;;;;;14.23;5.35;;;;;;;;;;7316770;19;20384;-46
2024/04/11 08:13:14;;;;;;;16.17;5.30;;;;;;;;;;7338917;19;20302;-49
2024/04/11 08:15:43;;;;;;;13.88;5.60;;;;;;;;;;7340753;19;20856;-49
2024/04/11 08:18:09;;;;;;;11.50;5.25;;;;;;;;;;7343213;19;20317;-46
2024/04/11 08:20:34;;;;;;;23.57;9.83;;;;;;;;;;7343196;19;20292;-46
2024/04/11 08:23:01;;;;;;;24.13;8.30;;;;;;;;;;7320434;19;20286;-46
2024/04/11 08:25:26;;;;;;;18.53;7.80;;;;;;;;;;7342335;19;20399;-46
2024/04/11 08:27:54;;;;;;;19.67;6.23;;;;;;;;;;7322197;19;20325;-47
2024/04/11 08:30:20;;;;;;;12.00;5.35;;;;;;;;;;7344283;19;20293;-46
2024/04/11 08:32:45;;;;;;;15.80;5.00;;;;;;;;;;7321529;19;20328;-46
2024/04/11 08:35:17;;;;;;;13.32;5.97;;;;;;;;;;7342328;19;20317;-46
2024/04/11 08:37:51;;;;;;;14.45;5.75;;;;;;;;;;7319775;19;20319;-46
2024/04/11 08:40:17;;;;;;;25.83;9.90;;;;;;;;;;7341816;19;20320;-45
2024/04/11 08:42:43;;;;;;;31.87;10.60;;;;;;;;;;7317032;19;20296;-48
2024/04/11 08:45:12;;;;;;;17.55;6.15;;;;;;;;;;7340127;19;21376;-46
2024/04/11 08:47:39;;;;;;;22.27;8.07;;;;;;;;;;7341233;19;20312;-50
2024/04/11 08:50:05;;;;;;;18.35;6.18;;;;;;;;;;7320104;19;20381;-46
2024/04/11 08:52:31;;;;;;;17.75;6.82;;;;;;;;;;7341986;19;20337;-45
2024/04/11 08:54:57;;;;;;;13.67;5.60;;;;;;;;;;7320195;19;20667;-53
2024/04/11 08:57:22;;;;;;;14.20;5.30;;;;;;;;;;7342088;19;20301;-48
2024/04/11 08:59:48;;;;;;;21.30;8.40;;;;;;;;;;7318739;19;20394;-49
2024/04/11 09:02:14;;;;;;;16.05;5.88;;;;;;;;;;7341158;19;20288;-48
2024/04/11 09:04:39;;;;;;;19.63;7.93;;;;;;;;;;7341241;19;20778;-46
2024/04/11 09:07:04;;;;;;;12.93;5.57;;;;;;;;;;7322189;19;20289;-49
2024/04/11 09:09:32;;;;;;;21.48;7.72;;;;;;;;;;7340797;19;20435;-44
2024/04/11 09:11:58;;;;;;;16.30;6.50;;;;;;;;;;7320370;19;20328;-46
2024/04/11 09:14:23;;;;;;;17.60;5.80;;;;;;;;;;7343503;19;20450;-46
2024/04/11 09:17:04;;;;;;;16.17;6.65;;;;;;;;;;7318869;19;20872;-48
2024/04/11 09:19:39;;;;;;;14.52;5.88;;;;;;;;;;7335335;19;20380;-47
2024/04/11 09:22:13;;;;;;;15.70;6.03;;;;;;;;;;7321125;19;20301;-46
2024/04/11 09:24:47;;;;;;;18.20;6.00;;;;;;;;;;7342336;19;20690;-46
2024/04/11 09:27:16;;;;;;;12.07;4.75;;;;;;;;;;7320849;19;20297;-46
2024/04/11 09:29:42;;;;;;;18.63;6.63;;;;;;;;;;7319270;19;20867;-45
2024/04/11 09:32:09;;;;;;;27.63;9.90;;;;;;;;;;7340200;19;20364;-45
2024/04/11 09:34:38;;;;;;;33.55;11.82;;;;;;;;;;7344795;19;20296;-46
2024/04/11 09:37:07;;;;;;;20.73;8.93;;;;;;;;;;7326008;19;20301;-46
2024/04/11 09:39:56;;;;;;;20.10;8.32;;;;;;;;;;7345949;19;20296;-46
2024/04/11 09:42:25;;;;;;;14.70;5.40;;;;;;;;;;7327575;19;20850;-46
2024/04/11 09:45:00;;;;;;;27.48;10.80;;;;;;;;;;7325803;19;20360;-50
2024/04/11 09:47:31;;;;;;;22.60;9.00;;;;;;;;;;7345973;19;20337;-51
2024/04/11 09:49:59;;;;;;;14.82;5.50;;;;;;;;;;7326229;19;20313;-49
2024/04/11 09:52:27;;;;;;;19.55;7.93;;;;;;;;;;7347801;19;20344;-46
2024/04/11 09:54:56;;;;;;;14.80;5.43;;;;;;;;;;7326532;19;20332;-45
2024/04/11 09:57:24;;;;;;;16.10;5.97;;;;;;;;;;7347227;19;20305;-51
2024/04/11 09:59:50;;;;;;;13.60;5.72;;;;;;;;;;7324840;19;20321;-49
2024/04/11 10:02:16;;;;;;;12.85;5.05;;;;;;;;;;7347033;19;20303;-46
2024/04/11 10:04:42;;;;;;;12.60;5.30;;;;;;;;;;7327606;19;20312;-49
2024/04/11 10:07:08;;;;;;;16.98;6.25;;;;;;;;;;7347397;19;20305;-46
2024/04/11 10:09:34;;;;;;;14.47;5.00;;;;;;;;;;7345190;19;20662;-47
2024/04/11 10:12:01;;;;;;;16.85;7.03;;;;;;;;;;7325465;19;20436;-47
2024/04/11 10:14:28;;;;;;;11.10;5.50;;;;;;;;;;7347169;19;20353;-48
2024/04/11 10:17:01;;;;;;;12.73;4.80;;;;;;;;;;7324695;19;20324;-47
2024/04/11 10:19:27;;;;;;;14.25;6.00;;;;;;;;;;7345172;19;20348;-46
2024/04/11 10:22:00;;;;;;;11.80;5.00;;;;;;;;;;7326226;19;20328;-45
2024/04/11 10:24:31;;;;;;;12.93;5.35;;;;;;;;;;7345034;19;21019;-46
2024/04/11 10:27:09;;;;;;;16.23;5.82;;;;;;;;;;7325957;19;20309;-46
2024/04/11 10:29:35;;;;;;;10.65;5.20;;;;;;;;;;7343874;19;20360;-47
2024/04/11 10:32:02;;;;;;;13.35;5.13;;;;;;;;;;7325445;19;20286;-45
2024/04/11 10:34:37;;;;;;;11.52;5.30;;;;;;;;;;7346511;19;20341;-44
2024/04/11 10:37:03;;;;;;;11.75;5.60;;;;;;;;;;7324348;19;20303;-46
2024/04/11 10:39:29;;;;;;;13.82;5.20;;;;;;;;;;7345043;19;20828;-46
2024/04/11 10:41:57;;;;;;;14.43;5.88;;;;;;;;;;7323731;19;20328;-46
2024/04/11 10:44:23;;;;;;;13.15;6.15;;;;;;;;;;7344546;19;20301;-49
2024/04/11 10:46:50;;;;;;;14.52;6.45;;;;;;;;;;7322650;19;20304;-45
2024/04/11 10:49:16;;;;;;;11.63;5.43;;;;;;;;;;7343408;19;20300;-46
2024/04/11 10:51:42;;;;;;;12.50;5.32;;;;;;;;;;7326346;19;20337;-45
2024/04/11 10:54:10;;;;;;;11.07;4.90;;;;;;;;;;7344202;19;20309;-50
2024/04/11 10:56:41;;;;;;;12.50;4.93;;;;;;;;;;7345294;19;20301;-45
2024/04/11 10:59:22;;;;;;;17.67;7.70;;;;;;;;;;7322841;19;20631;-46
2024/04/11 11:01:57;;;;;;;27.00;11.40;;;;;;;;;;7323238;19;20355;-44
2024/04/11 11:04:25;;;;;;;11.53;5.50;;;;;;;;;;7344141;19;20296;-47
2024/04/11 11:06:54;;;;;;;16.52;7.68;;;;;;;;;;7323144;19;20304;-50
2024/04/11 11:09:21;;;;;;;15.00;6.05;;;;;;;;;;7342373;19;20619;-48
2024/04/11 11:11:47;;;;;;;16.17;7.43;;;;;;;;;;7321802;19;20384;-46
2024/04/11 11:14:20;;;;;;;21.00;8.07;;;;;;;;;;7345421;19;20292;-52
2024/04/11 11:16:50;;;;;;;22.42;10.18;;;;;;;;;;7323019;19;20320;-45
2024/04/11 11:19:16;;;;;;;34.22;14.93;;;;;;;;;;7342965;19;20292;-48
2024/04/11 11:21:45;;;;;;;22.35;9.70;;;;;;;;;;7324772;19;20383;-46
2024/04/11 11:24:15;;;;;;;12.95;4.80;;;;;;;;;;7343131;19;20316;-48
2024/04/11 11:26:46;;;;;;;11.40;5.10;;;;;;;;;;7338638;19;20393;-47
2024/04/11 11:29:13;;;;;;;9.77;4.30;;;;;;;;;;7344049;19;20288;-48
2024/04/11 11:31:50;;;;;;;11.35;5.38;;;;;;;;;;7323167;19;20321;-48
2024/04/11 11:34:16;;;;;;;11.35;5.30;;;;;;;;;;7343685;19;20329;-49
2024/04/11 11:36:44;;;;;;;10.85;4.97;;;;;;;;;;7326434;19;20308;-47
2024/04/11 11:39:19;;;;;;;12.00;5.70;;;;;;;;;;7342656;19;20300;-49
2024/04/11 11:41:47;;;;;;;15.35;5.70;;;;;;;;;;7321893;19;20301;-47
2024/04/11 11:44:17;;;;;;;10.80;5.40;;;;;;;;;;7344078;19;20843;-47
2024/04/11 11:46:44;;;;;;;13.32;5.70;;;;;;;;;;7321224;19;20297;-47
2024/04/11 11:49:12;;;;;;;8.98;5.20;;;;;;;;;;7342297;19;20332;-54
2024/04/11 11:51:39;;;;;;;10.40;5.80;;;;;;;;;;7343842;19;20305;-48
2024/04/11 11:54:12;;;;;;;13.40;6.20;;;;;;;;;;7321848;19;20308;-48
2024/04/11 11:56:42;;;;;;;12.40;5.82;;;;;;;;;;7344049;19;20301;-50
2024/04/11 11:59:10;;;;;;;9.82;6.18;;;;;;;;;;7323367;19;20301;-47
2024/04/11 12:01:41;;;;;;;11.30;6.07;;;;;;;;;;7343754;19;20305;-55
2024/04/11 12:04:08;;;;;;;11.68;6.20;;;;;;;;;;7321655;19;20292;-47
2024/04/11 12:06:34;;;;;;;15.98;7.00;;;;;;;;;;7343506;19;20312;-51
2024/04/11 12:09:10;;;;;;;11.45;5.78;;;;;;;;;;7319649;19;20332;-51
2024/04/11 12:12:07;;;;;;;9.80;6.00;;;;;;;;;;7343124;19;20937;-48
2024/04/11 12:14:34;;;;;;;14.10;6.63;;;;;;;;;;7322364;19;20308;-55
2024/04/11 12:17:05;;;;;;;10.52;6.07;;;;;;;;;;7322206;19;20340;-50
2024/04/11 12:19:30;;;;;;;9.10;5.20;;;;;;;;;;7340484;19;20317;-50
2024/04/11 12:22:11;;;;;;;10.32;6.40;;;;;;;;;;7322894;19;20324;-48
2024/04/11 12:24:37;;;;;;;9.93;5.88;;;;;;;;;;7343028;19;20690;-48
2024/04/11 12:27:04;;;;;;;14.50;7.20;;;;;;;;;;7323285;19;20328;-48
2024/04/11 12:29:31;;;;;;;11.70;6.90;;;;;;;;;;7341576;19;20734;-47
2024/04/11 12:32:02;;;;;;;13.98;7.28;;;;;;;;;;7322968;19;20360;-47
2024/04/11 12:34:27;;;;;;;11.80;6.65;;;;;;;;;;7343335;19;20308;-47
2024/04/11 12:36:59;;;;;;;11.52;7.00;;;;;;;;;;7321697;19;20301;-47
2024/04/11 12:39:32;;;;;;;14.60;8.57;;;;;;;;;;7341064;19;20311;-47
2024/04/11 12:42:00;;;;;;;13.77;7.40;;;;;;;;;;7320835;19;20320;-48
2024/04/11 12:44:30;;;;;;;13.55;8.05;;;;;;;;;;7342586;19;20304;-52
2024/04/11 12:46:57;;;;;;;14.77;8.05;;;;;;;;;;7319411;19;20297;-55
2024/04/11 12:49:29;;;;;;;12.43;7.32;;;;;;;;;;7341240;19;20321;-52
2024/04/11 12:51:55;;;;;;;17.52;8.57;;;;;;;;;;7319901;19;20328;-48
2024/04/11 12:54:27;;;;;;;13.63;7.82;;;;;;;;;;7341608;19;20308;-48
2024/04/11 12:56:56;;;;;;;14.45;7.50;;;;;;;;;;7319514;19;20357;-50
2024/04/11 12:59:30;;;;;;;14.18;8.30;;;;;;;;;;7340588;19;20390;-50
2024/04/11 13:01:58;;;;;;;14.65;7.00;;;;;;;;;;7319612;19;20304;-47
2024/04/11 13:04:33;;;;;;;18.05;9.13;;;;;;;;;;7340311;19;20841;-49
2024/04/11 13:07:02;;;;;;;11.50;6.25;;;;;;;;;;7320074;19;20304;-53
2024/04/11 13:09:48;;;;;;;13.63;8.40;;;;;;;;;;7345866;19;20295;-46
2024/04/11 13:12:16;;;;;;;17.05;8.50;;;;;;;;;;7327217;19;20303;-47
2024/04/11 13:14:55;;;;;;;10.93;7.22;;;;;;;;;;7323324;19;20343;-52
2024/04/11 13:17:23;;;;;;;47.50;22.70;;;;;;;;;;7348477;19;20851;-50
2024/04/11 13:19:48;;;;;;;30.10;14.65;;;;;;;;;;7325897;19;20332;-47
2024/04/11 13:22:14;;;;;;;38.00;17.92;;;;;;;;;;7349098;19;20343;-47
2024/04/11 13:24:42;;;;;;;48.63;22.80;;;;;;;;;;7348446;19;20388;-50
2024/04/11 13:27:15;;;;;;;69.03;31.70;;;;;;;;;;7328339;19;20297;-47
2024/04/11 13:29:48;;;;;;;45.35;20.63;;;;;;;;;;7339526;19;20325;-49
2024/04/11 13:32:20;;;;;;;30.75;15.63;;;;;;;;;;7347846;19;20292;-46
2024/04/11 13:35:04;;;;;;;34.83;18.00;;;;;;;;;;7325596;19;20324;-47
2024/04/11 13:37:37;;;;;;;42.22;18.73;;;;;;;;;;7344345;19;20896;-49
2024/04/11 13:43:04;;;;;;;20.77;12.45;;;;;;;;;;7324448;19;20305;-47
2024/04/11 13:45:29;;;;;;;16.20;9.47;;;;;;;;;;7346939;19;20895;-50
2024/04/11 13:48:03;;;;;;;36.93;18.17;;;;;;;;;;7324549;19;20304;-47
2024/04/11 13:50:37;;;;;;;32.60;16.55;;;;;;;;;;7347455;19;20905;-47
2024/04/11 13:53:06;;;;;;;23.58;13.00;;;;;;;;;;7327090;19;20336;-47
2024/04/11 13:55:41;;;;;;;19.50;10.20;;;;;;;;;;7347866;19;20321;-52
2024/04/11 13:58:10;;;;;;;45.30;22.17;;;;;;;;;;7325784;19;20373;-49
2024/04/11 14:00:36;;;;;;;26.55;16.10;;;;;;;;;;7347214;19;20653;-51
2024/04/11 14:03:22;;;;;;;15.30;10.15;;;;;;;;;;7320583;19;20829;-52
2024/04/11 14:05:59;;;;;;;18.90;10.07;;;;;;;;;;7325805;19;20300;-48
2024/04/11 14:08:31;;;;;;;17.52;10.85;;;;;;;;;;7344351;19;20347;-47
2024/04/11 14:10:57;;;;;;;16.70;10.80;;;;;;;;;;7325977;19;20325;-48
2024/04/11 14:13:23;;;;;;;17.90;11.37;;;;;;;;;;7348568;19;20377;-49
2024/04/11 14:15:52;;;;;;;18.92;11.50;;;;;;;;;;7325127;19;20321;-52
2024/04/11 14:18:25;;;;;;;17.88;11.00;;;;;;;;;;7348050;19;20325;-49
2024/04/11 14:20:57;;;;;;;17.98;11.35;;;;;;;;;;7323918;19;20300;-49
2024/04/11 14:23:52;;;;;;;19.42;11.63;;;;;;;;;;7346625;19;20311;-51
2024/04/11 14:26:24;;;;;;;19.55;11.57;;;;;;;;;;7328094;19;20325;-52
2024/04/11 14:28:54;;;;;;;15.50;10.70;;;;;;;;;;7323578;19;20335;-50
2024/04/11 14:31:30;;;;;;;19.70;11.55;;;;;;;;;;7347495;19;20297;-52
2024/04/11 14:36:27;;;;;;;22.02;13.55;;;;;;;;;;7346190;19;20300;-51
2024/04/11 14:38:55;;;;;;;20.58;13.80;;;;;;;;;;7322391;19;20324;-47
2024/04/11 14:41:23;;;;;;;23.38;14.10;;;;;;;;;;7345874;19;20300;-47